Meteorología y climatología de Navarra
Datos de la estación - Meteo Navarra

Estación de Erremendia (Salazar) GN

Altitud 1047 m.


Datos desde el 09/11/2018 hasta el 10/11/2018 en horario solar
Los datos son PROVISIONALES

Anterior Página 1 de 1 Siguiente Descargar: Formato para Excel 2000 o superior   Formato csv   Formato para OpenOffice Calc
Fecha Temperatura Humedad relativa Radiación global Insolación Precipitación Velocidad viento 10 m Velocidad viento 10 m Dirección viento 10 m
ºC % W/m² s l/m² m/s km/h º
09/11/2018 0:00 7.0 94 0.0 0 1.0 4.0 14.2 145
09/11/2018 0:10 6.7 93 0.0 0 2.3 3.3 11.8 247
09/11/2018 0:20 5.6 94 0.0 0 0.9 2.8 10.0 253
09/11/2018 0:30 5.2 94 0.0 0 0.3 2.6 9.2 244
09/11/2018 0:40 5.0 95 0.0 0 0.7 2.5 9.1 245
09/11/2018 0:50 5.0 95 0.0 0 0.7 2.0 7.2 251
09/11/2018 1:00 4.9 95 0.0 0 0.7 1.1 3.9 271
09/11/2018 1:10 4.8 96 0.0 0 0.9 0.1 0.4 304
09/11/2018 1:20 4.8 96 0.0 0 1.2 0.7 2.5 29
09/11/2018 1:30 4.8 97 0.0 0 0.4 1.5 5.4 54
09/11/2018 1:40 4.8 97 0.0 0 0.0 1.0 3.6 26
09/11/2018 1:50 4.8 97 0.0 0 0.1 0.6 2.0 32
09/11/2018 2:00 4.8 97 0.0 0 0.0 0.8 3.0 53
09/11/2018 2:10 4.7 98 0.0 0 0.0 0.5 1.8 289
09/11/2018 2:20 4.7 98 0.0 0 0.0 0.9 3.2 301
09/11/2018 2:30 4.7 98 0.0 0 0.0 0.5 1.6 236
09/11/2018 2:40 4.7 98 0.0 0 0.0 0.5 1.7 206
09/11/2018 2:50 4.7 98 0.0 0 0.0 0.6 2.1 210
09/11/2018 3:00 4.6 98 0.0 0 0.0 0.1 0.3 262
09/11/2018 3:10 4.7 98 0.0 0 0.0 0.2 0.5 247
09/11/2018 3:20 4.6 98 0.0 0 0.0 0.4 1.5 251
09/11/2018 3:30 4.6 98 0.0 0 0.0 0.3 1.2 186
09/11/2018 3:40 4.7 98 0.0 0 0.0 0.6 2.3 175
09/11/2018 3:50 4.6 98 0.0 0 0.0 0.4 1.5 222
09/11/2018 4:00 4.6 98 0.0 0 0.2 0.4 1.5 244
09/11/2018 4:10 4.7 98 0.0 0 0.0 0.6 2.3 225
09/11/2018 4:20 4.7 98 0.0 0 0.1 1.2 4.4 268
09/11/2018 4:30 4.7 98 0.0 0 0.1 1.9 6.9 291
09/11/2018 4:40 4.8 98 0.0 0 0.1 1.9 6.7 300
09/11/2018 4:50 4.8 98 0.0 0 0.1 1.5 5.5 301
09/11/2018 5:00 4.7 98 0.0 0 0.0 1.5 5.5 301
09/11/2018 5:10 4.7 98 0.0 0 0.1 1.7 6.0 300
09/11/2018 5:20 4.7 98 0.0 0 0.1 1.4 5.0 313
09/11/2018 5:30 4.7 98 0.0 0 0.1 1.2 4.2 311
09/11/2018 5:40 4.7 98 0.0 0 0.0 1.5 5.4 304
09/11/2018 5:50 4.6 98 0.0 0 0.1 1.0 3.6 309
09/11/2018 6:00 4.6 98 0.0 0 0.0 1.9 6.7 319
09/11/2018 6:10 4.6 98 0.0 0 0.1 2.2 8.0 307
09/11/2018 6:20 4.5 98 0.0 0 0.0 2.6 9.3 299
09/11/2018 6:30 4.5 98 0.0 0 0.0 2.5 9.0 307
09/11/2018 6:40 4.5 98 0.0 0 0.0 2.3 8.1 310
09/11/2018 6:50 4.4 98 0.0 0 0.0 2.3 8.1 302
09/11/2018 7:00 4.3 98 0.0 0 0.1 2.2 8.0 302
09/11/2018 7:10 4.4 98 0.0 0 0.0 2.3 8.1 298
09/11/2018 7:20 4.3 98 0.0 0 0.0 1.9 6.9 302
09/11/2018 7:30 4.3 98 6.4 0 0.1 2.2 8.1 299
09/11/2018 7:40 4.3 98 27.5 0 0.0 1.8 6.6 300
09/11/2018 7:50 4.4 98 51.1 0 0.0 1.2 4.5 288
09/11/2018 8:00 4.5 98 51.0 0 0.0 1.3 4.5 295
09/11/2018 8:10 4.5 97 60.3 0 0.0 1.9 6.8 298
09/11/2018 8:20 4.6 97 36.5 0 0.0 2.1 7.5 296
09/11/2018 8:30 4.5 97 36.5 0 0.0 2.4 8.7 300
09/11/2018 8:40 4.5 97 42.5 0 0.0 1.7 6.0 314
09/11/2018 8:50 4.5 97 64.5 0 0.0 1.9 6.9 317
09/11/2018 9:00 4.6 97 88.0 0 0.0 1.6 5.8 312
09/11/2018 9:10 4.7 97 106.1 0 0.0 1.7 6.1 305
09/11/2018 9:20 4.8 97 139.0 0 0.0 1.8 6.4 304
09/11/2018 9:30 5.1 97 228.0 230 0.0 1.2 4.5 292
09/11/2018 9:40 5.4 96 193.5 196 0.0 1.4 5.1 302
09/11/2018 9:50 5.4 95 194.9 0 0.0 1.7 6.2 303
09/11/2018 10:00 5.5 95 132.0 0 0.0 1.6 5.6 302
09/11/2018 10:10 5.5 95 173.7 48 0.0 1.4 5.0 291
09/11/2018 10:20 5.8 96 197.3 104 0.0 1.7 6.1 284
09/11/2018 10:30 5.7 95 154.4 46 0.0 2.2 7.9 276
09/11/2018 10:40 5.6 95 230.3 178 0.0 2.1 7.6 282
09/11/2018 10:50 5.9 95 282.6 298 0.0 2.1 7.7 296
09/11/2018 11:00 5.9 95 161.3 0 0.0 1.7 6.2 299
09/11/2018 11:10 5.7 95 167.7 92 0.0 1.7 6.1 306
09/11/2018 11:20 6.3 93 485.7 586 0.0 1.2 4.3 296
09/11/2018 11:30 7.0 90 576.8 600 0.0 2.0 7.0 284
09/11/2018 11:40 7.0 87 272.2 240 0.0 1.7 6.0 292
09/11/2018 11:50 6.7 89 271.5 218 0.0 1.4 5.2 290
09/11/2018 12:00 6.6 89 226.8 0 0.0 1.3 4.5 296
09/11/2018 12:10 6.5 88 208.6 0 0.0 2.0 7.1 318
09/11/2018 12:20 6.5 86 238.4 30 0.0 1.9 6.8 320
09/11/2018 12:30 6.5 87 225.2 0 0.0 1.7 5.9 302
09/11/2018 12:40 6.5 87 373.0 400 0.0 1.7 6.2 298
09/11/2018 12:50 7.0 84 535.4 600 0.0 1.0 3.5 296
09/11/2018 13:00 7.9 82 530.0 600 0.0 0.8 2.8 236
09/11/2018 13:10 8.2 79 460.3 600 0.0 1.6 5.7 198
09/11/2018 13:20 7.9 80 376.5 600 0.0 1.7 6.0 224
09/11/2018 13:30 8.2 79 326.0 324 0.0 1.8 6.3 238
09/11/2018 13:40 7.7 83 216.1 192 0.0 3.0 10.8 214
09/11/2018 13:50 7.4 83 207.6 216 0.0 3.0 10.7 214
09/11/2018 14:00 7.5 83 202.2 262 0.0 3.0 10.7 225
09/11/2018 14:10 7.2 83 176.4 118 0.0 2.8 10.2 222
09/11/2018 14:20 7.0 84 251.2 560 0.0 3.1 11.2 226
09/11/2018 14:30 7.2 81 291.4 600 0.0 2.5 9.0 212
09/11/2018 14:40 7.4 78 266.5 600 0.0 3.2 11.6 213
09/11/2018 14:50 7.6 77 300.2 596 0.0 3.2 11.5 222
09/11/2018 15:00 7.5 77 196.7 394 0.0 2.6 9.2 226
09/11/2018 15:10 7.6 77 276.1 590 0.0 1.0 3.6 266
09/11/2018 15:20 7.6 77 218.1 600 0.0 0.9 3.2 42
09/11/2018 15:30 8.1 73 188.1 600 0.0 1.0 3.6 167
09/11/2018 15:40 8.2 71 160.9 600 0.0 1.0 3.7 191
09/11/2018 15:50 8.2 69 121.9 538 0.0 0.8 3.0 185
09/11/2018 16:00 8.0 66 82.1 418 0.0 1.2 4.1 141
09/11/2018 16:10 7.5 68 37.0 118 0.0 1.5 5.3 166
09/11/2018 16:20 6.5 74 3.6 0 0.0 1.4 5.0 182
09/11/2018 16:30 6.2 75 0.0 0 0.0 1.4 5.2 121
09/11/2018 16:40 6.0 75 0.0 0 0.0 1.9 6.9 89
09/11/2018 16:50 6.0 74 0.0 0 0.0 2.1 7.6 114
09/11/2018 17:00 5.9 74 0.0 0 0.0 2.5 8.9 106
09/11/2018 17:10 5.6 75 0.0 0 0.0 2.6 9.3 105
09/11/2018 17:20 5.3 77 0.0 0 0.0 2.4 8.8 105
09/11/2018 17:30 5.5 75 0.0 0 0.0 2.1 7.6 91
09/11/2018 17:40 4.6 79 0.0 0 0.0 2.6 9.3 64
09/11/2018 17:50 4.0 83 0.0 0 0.0 2.1 7.6 101
09/11/2018 18:00 4.8 80 0.0 0 0.0 1.8 6.3 114
09/11/2018 18:10 4.6 82 0.0 0 0.0 2.3 8.4 96
09/11/2018 18:20 4.8 82 0.0 0 0.0 2.4 8.8 101
09/11/2018 18:30 5.7 79 0.0 0 0.0 2.2 7.8 102
09/11/2018 18:40 5.7 80 0.0 0 0.0 2.7 9.5 99
09/11/2018 18:50 5.8 80 0.0 0 0.0 2.1 7.4 82
09/11/2018 19:00 5.7 82 0.0 0 0.0 2.5 8.9 87
09/11/2018 19:10 6.0 79 0.0 0 0.0 2.3 8.1 110
09/11/2018 19:20 6.5 76 0.0 0 0.0 1.7 6.1 135
09/11/2018 19:30 6.2 78 0.0 0 0.0 2.8 10.1 94
09/11/2018 19:40 5.7 83 0.0 0 0.0 2.4 8.8 93
09/11/2018 19:50 6.2 81 0.0 0 0.0 1.9 6.8 109
09/11/2018 20:00 5.8 84 0.0 0 0.0 1.9 6.7 112
09/11/2018 20:10 5.7 87 0.0 0 0.0 1.7 6.2 88
09/11/2018 20:20 5.6 87 0.0 0 0.0 1.1 3.9 112
09/11/2018 20:30 5.5 87 0.0 0 0.0 2.2 7.7 99
09/11/2018 20:40 5.4 87 0.0 0 0.0 2.2 8.1 115
09/11/2018 20:50 5.3 88 0.0 0 0.0 2.4 8.6 99
09/11/2018 21:00 5.5 88 0.0 0 0.0 2.5 9.1 106
09/11/2018 21:10 5.5 86 0.0 0 0.0 2.9 10.5 118
09/11/2018 21:20 5.6 86 0.0 0 0.0 3.9 14.2 103
09/11/2018 21:30 5.6 85 0.0 0 0.0 3.3 11.8 107
09/11/2018 21:40 5.8 84 0.0 0 0.0 3.4 12.1 117
09/11/2018 21:50 5.6 85 0.0 0 0.0 2.6 9.3 128
09/11/2018 22:00 5.4 86 0.0 0 0.0 2.8 10.1 106
09/11/2018 22:10 5.3 87 0.0 0 0.0 3.7 13.2 105
09/11/2018 22:20 5.4 87 0.0 0 0.0 3.8 13.6 112
09/11/2018 22:30 5.5 86 0.0 0 0.0 3.8 13.5 111
09/11/2018 22:40 5.5 86 0.0 0 0.0 3.8 13.7 104
09/11/2018 22:50 5.5 86 0.0 0 0.0 4.0 14.5 88
09/11/2018 23:00 5.5 86 0.0 0 0.0 2.6 9.5 109
09/11/2018 23:10 5.4 86 0.0 0 0.0 3.1 11.1 93
09/11/2018 23:20 5.5 86 0.0 0 0.0 2.7 9.6 100
09/11/2018 23:30 5.7 86 0.0 0 0.0 2.4 8.5 100
09/11/2018 23:40 5.7 86 0.0 0 0.0 3.3 11.9 86
09/11/2018 23:50 5.9 84 0.0 0 0.0 2.7 9.8 101
Anterior Página 1 de 1 Siguiente

NOTA: Tipo de datos según el color:
   - Valores diarios o 10 minutos correctos
   - Valores diarios calculados a partir de un número de datos 10 minutos menor que 144 y mayor que 120, o de un número de datos semihorarios menor que 48 y mayor que 40 (caso de las estaciones de Riegos de Navarra y del MARM)
   - Valores diez minutos estimados


Contacto        Enlaces        Aviso legal